createdAt,value
2022-10-15T00:00:52.364Z,99.38
2022-10-15T00:01:52.361Z,99.13
2022-10-15T00:02:52.369Z,98.82
2022-10-15T00:03:52.289Z,98.86
2022-10-15T00:04:52.221Z,99.27
2022-10-15T00:05:52.187Z,99.38
2022-10-15T00:06:52.159Z,98.92
2022-10-15T00:07:52.127Z,99.13
2022-10-15T00:08:52.163Z,99.38
2022-10-15T00:09:52.075Z,99.48
2022-10-15T00:10:52.038Z,99.99
2022-10-15T00:11:52.061Z,99.99
2022-10-15T00:12:52.079Z,99.84
2022-10-15T00:13:51.981Z,99.99
2022-10-15T00:14:51.900Z,99.99
2022-10-15T00:15:51.913Z,99.99
2022-10-15T00:16:51.928Z,99.99
2022-10-15T00:17:51.815Z,99.99
2022-10-15T00:18:51.806Z,99.99
2022-10-15T00:19:51.755Z,99.99
2022-10-15T00:20:51.728Z,99.99
2022-10-15T00:21:51.830Z,99.99
2022-10-15T00:22:51.669Z,99.99
2022-10-15T00:23:51.634Z,99.99
2022-10-15T00:24:51.604Z,99.99
2022-10-15T00:25:51.599Z,99.99
2022-10-15T00:26:51.621Z,99.99
2022-10-15T00:27:51.534Z,99.99
2022-10-15T00:28:51.540Z,99.99
2022-10-15T00:29:51.482Z,99.99
2022-10-15T00:30:51.423Z,99.99
2022-10-15T00:31:51.411Z,99.99
2022-10-15T00:32:51.427Z,99.99
2022-10-15T00:33:51.336Z,99.99
2022-10-15T00:34:51.303Z,99.99
2022-10-15T00:35:51.259Z,99.99
2022-10-15T00:36:51.228Z,99.99
2022-10-15T00:37:51.195Z,99.99
2022-10-15T00:38:51.293Z,99.99
2022-10-15T00:39:51.196Z,99.99
2022-10-15T00:40:51.110Z,99.99
2022-10-15T00:41:51.081Z,99.99
2022-10-15T00:42:51.055Z,99.99
2022-10-15T00:43:51.012Z,99.99
2022-10-15T00:44:51.104Z,99.99
2022-10-15T00:45:51.002Z,99.99
2022-10-15T00:46:51.022Z,99.99
2022-10-15T00:47:50.893Z,99.99
2022-10-15T00:48:50.986Z,99.99
2022-10-15T00:49:50.834Z,99.99
2022-10-15T00:50:50.803Z,99.99
2022-10-15T00:51:50.762Z,99.99
2022-10-15T00:52:50.742Z,99.99
2022-10-15T00:53:50.703Z,99.99
2022-10-15T00:54:50.749Z,99.99
2022-10-15T00:55:50.640Z,99.99
2022-10-15T00:56:50.628Z,99.99
2022-10-15T00:57:50.589Z,99.99
2022-10-15T00:58:50.650Z,99.99
2022-10-15T00:59:50.515Z,99.99
2022-10-15T01:00:50.541Z,99.99
2022-10-15T01:01:50.456Z,99.99
2022-10-15T01:02:50.434Z,99.99
2022-10-15T01:03:50.402Z,99.99
2022-10-15T01:04:50.438Z,99.99
2022-10-15T01:05:50.330Z,99.99
2022-10-15T01:06:50.294Z,99.99
2022-10-15T01:07:50.266Z,99.99
2022-10-15T01:08:50.241Z,99.99
2022-10-15T01:09:50.281Z,99.99
2022-10-15T01:10:50.175Z,99.99
2022-10-15T01:11:50.144Z,99.99
2022-10-15T01:12:50.153Z,99.99
2022-10-15T01:13:50.095Z,99.99
2022-10-15T01:14:50.063Z,99.99
2022-10-15T01:15:50.076Z,99.99
2022-10-15T01:16:50.001Z,99.99
2022-10-15T01:17:49.959Z,99.99
2022-10-15T01:18:49.926Z,99.99
2022-10-15T01:19:49.900Z,99.99
2022-10-15T01:20:49.866Z,99.99
2022-10-15T01:21:49.924Z,99.99
2022-10-15T01:22:49.808Z,99.99
2022-10-15T01:23:49.773Z,99.99
2022-10-15T01:24:49.752Z,99.99
2022-10-15T01:25:49.724Z,99.99
2022-10-15T01:26:49.702Z,99.99
2022-10-15T01:27:49.725Z,99.99
2022-10-15T01:28:49.660Z,99.99
2022-10-15T01:29:49.594Z,99.99
2022-10-15T01:30:49.564Z,99.99
2022-10-15T01:31:49.539Z,99.99
2022-10-15T01:32:49.506Z,99.99
2022-10-15T01:33:49.539Z,99.99
2022-10-15T01:34:49.431Z,99.99
2022-10-15T01:35:49.421Z,99.99
2022-10-15T01:36:49.403Z,99.99
2022-10-15T01:37:49.334Z,99.99
2022-10-15T01:38:49.304Z,99.99
2022-10-15T01:39:49.359Z,99.99
2022-10-15T01:40:49.258Z,99.99
2022-10-15T01:41:49.228Z,99.99
2022-10-15T01:42:49.189Z,99.99
2022-10-15T01:43:49.179Z,99.99
2022-10-15T01:44:49.126Z,99.99
2022-10-15T01:45:49.175Z,99.99
2022-10-15T01:46:49.062Z,99.99
2022-10-15T01:47:49.055Z,99.99
2022-10-15T01:48:49.007Z,99.99
2022-10-15T01:49:48.989Z,99.99
2022-10-15T01:50:48.941Z,99.99
2022-10-15T01:51:48.957Z,99.99
2022-10-15T01:52:48.962Z,99.99
2022-10-15T01:53:48.839Z,99.99
2022-10-15T01:54:48.812Z,99.99
2022-10-15T01:55:48.777Z,99.99
2022-10-15T01:56:49.793Z,99.99
2022-10-15T01:57:48.727Z,99.99
2022-10-15T01:58:48.806Z,99.99
2022-10-15T01:59:48.663Z,99.99
2022-10-15T02:00:48.643Z,99.99
2022-10-15T02:01:48.613Z,99.99
2022-10-15T02:02:48.574Z,99.99
2022-10-15T02:03:48.589Z,99.99
2022-10-15T02:04:48.523Z,99.99
2022-10-15T02:05:48.469Z,99.99
2022-10-15T02:06:48.476Z,99.99
2022-10-15T02:07:48.409Z,99.99
2022-10-15T02:08:48.471Z,99.99
2022-10-15T02:09:48.346Z,99.99
2022-10-15T02:10:48.317Z,99.99
2022-10-15T02:11:48.305Z,99.99
2022-10-15T02:12:48.260Z,99.99
2022-10-15T02:13:48.227Z,99.99
2022-10-15T02:14:48.260Z,99.99
2022-10-15T02:15:48.156Z,99.99
2022-10-15T02:16:48.138Z,99.99
2022-10-15T02:17:48.108Z,99.99
2022-10-15T02:18:48.090Z,99.99
2022-10-15T02:19:48.140Z,99.99
2022-10-15T02:20:48.069Z,99.99
2022-10-15T02:21:47.975Z,99.99
2022-10-15T02:22:47.946Z,99.99
2022-10-15T02:23:47.911Z,99.99
2022-10-15T02:24:51.670Z,99.99
2022-10-15T02:25:47.850Z,99.99
2022-10-15T02:26:47.822Z,99.99
2022-10-15T02:27:47.796Z,99.99
2022-10-15T02:28:47.779Z,99.99
2022-10-15T02:29:47.782Z,99.99
2022-10-15T02:30:47.704Z,99.99
2022-10-15T02:31:47.681Z,99.99
2022-10-15T02:32:47.631Z,99.99
2022-10-15T02:33:47.617Z,99.99
2022-10-15T02:34:47.638Z,99.99
2022-10-15T02:35:47.541Z,99.99
2022-10-15T02:36:47.540Z,99.99
2022-10-15T02:37:47.475Z,99.99
2022-10-15T02:38:47.463Z,99.99
2022-10-15T02:39:47.499Z,99.99
2022-10-15T02:40:47.383Z,99.99
2022-10-15T02:41:47.397Z,99.99
2022-10-15T02:42:47.400Z,99.99
2022-10-15T02:43:47.286Z,99.99
2022-10-15T02:44:47.277Z,99.99
2022-10-15T02:45:47.297Z,99.99
2022-10-15T02:46:47.199Z,99.99
2022-10-15T02:47:47.175Z,99.99
2022-10-15T02:48:47.165Z,99.99
2022-10-15T02:49:47.105Z,99.99
2022-10-15T02:50:47.134Z,99.99
2022-10-15T02:51:47.124Z,99.99
2022-10-15T02:52:47.050Z,99.99
2022-10-15T02:53:47.007Z,99.99
2022-10-15T02:54:46.957Z,99.99
2022-10-15T02:55:46.916Z,99.99
2022-10-15T02:56:46.890Z,99.99
2022-10-15T02:57:46.914Z,99.99
2022-10-15T02:58:46.823Z,99.99
2022-10-15T02:59:46.794Z,99.99
2022-10-15T03:00:46.778Z,99.99
2022-10-15T03:01:46.731Z,99.99
2022-10-15T03:02:46.700Z,99.99
2022-10-15T03:03:46.736Z,99.99
2022-10-15T03:04:46.663Z,99.99
2022-10-15T03:05:46.677Z,99.99
2022-10-15T03:06:46.579Z,99.99
2022-10-15T03:07:46.545Z,99.99
2022-10-15T03:08:46.512Z,99.99
2022-10-15T03:09:46.500Z,99.99
2022-10-15T03:10:46.530Z,99.99
2022-10-15T03:11:46.416Z,99.99
2022-10-15T03:12:46.395Z,99.99
2022-10-15T03:13:46.373Z,99.99
2022-10-15T03:14:46.324Z,99.99
2022-10-15T03:15:46.395Z,99.99
2022-10-15T03:16:46.308Z,99.99
2022-10-15T03:17:46.230Z,99.99
2022-10-15T03:18:46.198Z,99.99
2022-10-15T03:19:46.178Z,99.99
2022-10-15T03:20:46.213Z,99.99
2022-10-15T03:21:46.102Z,99.99
2022-10-15T03:22:46.075Z,99.99
2022-10-15T03:23:46.774Z,99.99
2022-10-15T03:24:46.010Z,99.99
2022-10-15T03:25:46.044Z,99.99
2022-10-15T03:26:45.945Z,99.99
2022-10-15T03:27:45.922Z,99.99
2022-10-15T03:28:45.968Z,99.99
2022-10-15T03:29:45.856Z,99.99
2022-10-15T03:30:45.824Z,99.99
2022-10-15T03:31:45.857Z,99.99
2022-10-15T03:32:45.768Z,99.99
2022-10-15T03:33:45.768Z,99.99
2022-10-15T03:34:45.762Z,99.99
2022-10-15T03:35:45.678Z,99.99
2022-10-15T03:36:45.639Z,99.99
2022-10-15T03:37:45.655Z,99.99
2022-10-15T03:38:45.573Z,99.99
2022-10-15T03:39:45.545Z,99.99
2022-10-15T03:40:45.517Z,99.99
2022-10-15T03:41:45.544Z,99.99
2022-10-15T03:42:45.467Z,99.99
2022-10-15T03:43:45.440Z,99.99
2022-10-15T03:44:45.383Z,99.99
2022-10-15T03:45:45.386Z,99.99
2022-10-15T03:46:45.414Z,99.99
2022-10-15T03:47:45.312Z,99.99
2022-10-15T03:48:45.272Z,99.99
2022-10-15T03:49:45.265Z,99.99
2022-10-15T03:51:45.170Z,99.99
2022-10-15T03:52:45.194Z,99.99
2022-10-15T03:53:45.110Z,99.99
2022-10-15T03:54:45.081Z,99.99
2022-10-15T03:55:45.041Z,99.99
2022-10-15T03:56:45.015Z,99.99
2022-10-15T03:57:44.997Z,99.99
2022-10-15T03:58:45.464Z,99.99
2022-10-15T04:00:44.996Z,99.99
2022-10-15T04:01:44.864Z,99.99
2022-10-15T04:02:44.834Z,99.99
2022-10-15T04:03:44.853Z,99.99
2022-10-15T04:04:44.776Z,99.99
2022-10-15T04:05:44.737Z,99.99
2022-10-15T04:06:44.709Z,99.99
2022-10-15T04:07:44.728Z,99.99
2022-10-15T04:08:44.672Z,99.99
2022-10-15T04:09:44.696Z,99.99
2022-10-15T04:10:44.581Z,99.99
2022-10-15T04:11:44.571Z,99.99
2022-10-15T04:12:44.522Z,99.99
2022-10-15T04:13:44.538Z,99.99
2022-10-15T04:14:44.452Z,99.99
2022-10-15T04:15:44.415Z,99.99
2022-10-15T04:16:44.394Z,99.99
2022-10-15T04:17:44.372Z,99.99
2022-10-15T04:18:44.399Z,99.99
2022-10-15T04:19:44.292Z,99.99
2022-10-15T04:20:44.273Z,99.99
2022-10-15T04:21:44.225Z,99.99
2022-10-15T04:22:44.216Z,99.99
2022-10-15T04:23:44.224Z,99.99
2022-10-15T04:24:44.136Z,99.99
2022-10-15T04:25:44.176Z,99.99
2022-10-15T04:26:44.076Z,99.99
2022-10-15T04:27:44.057Z,99.99
2022-10-15T04:28:44.129Z,99.99
2022-10-15T04:29:43.983Z,99.99
2022-10-15T04:30:43.959Z,99.99
2022-10-15T04:31:43.920Z,99.99
2022-10-15T04:32:43.886Z,99.99
2022-10-15T04:33:43.914Z,99.99
2022-10-15T04:34:43.825Z,99.99
2022-10-15T04:35:43.790Z,99.99
2022-10-15T04:36:43.760Z,99.99
2022-10-15T04:37:43.739Z,99.99
2022-10-15T04:38:43.759Z,99.99
2022-10-15T04:39:43.679Z,99.99
2022-10-15T04:40:43.645Z,99.99
2022-10-15T04:41:43.621Z,99.99
2022-10-15T04:42:43.594Z,99.99
2022-10-15T04:43:43.619Z,99.99
2022-10-15T04:44:43.518Z,99.99
2022-10-15T04:45:43.497Z,99.99
2022-10-15T04:46:43.452Z,99.99
2022-10-15T04:47:43.417Z,99.99
2022-10-15T04:48:43.550Z,99.99
2022-10-15T04:49:43.418Z,99.99
2022-10-15T04:50:43.327Z,99.99
2022-10-15T04:51:43.296Z,99.99
2022-10-15T04:52:43.262Z,99.99
2022-10-15T04:53:43.230Z,99.99
2022-10-15T04:54:43.211Z,99.99
2022-10-15T04:55:43.252Z,99.99
2022-10-15T04:56:43.146Z,99.99
2022-10-15T04:57:43.133Z,99.99
2022-10-15T04:58:43.099Z,99.99
2022-10-15T04:59:43.060Z,99.99
2022-10-15T05:00:43.062Z,99.99
2022-10-15T05:01:43.003Z,99.99
2022-10-15T05:02:42.944Z,99.99
2022-10-15T05:03:45.076Z,99.99
2022-10-15T05:04:42.910Z,99.99
2022-10-15T05:05:42.906Z,99.99
2022-10-15T05:06:42.822Z,99.99
2022-10-15T05:07:42.789Z,99.99
2022-10-15T05:08:42.766Z,99.99
2022-10-15T05:09:46.131Z,99.99
2022-10-15T05:10:42.768Z,99.99
2022-10-15T05:11:42.666Z,99.99
2022-10-15T05:13:42.606Z,99.99
2022-10-15T05:14:42.576Z,99.99
2022-10-15T05:15:42.593Z,99.99
2022-10-15T05:16:42.533Z,99.99
2022-10-15T05:17:42.473Z,99.99
2022-10-15T05:18:42.434Z,99.99
2022-10-15T05:19:42.404Z,99.99
2022-10-15T05:20:42.432Z,99.99
2022-10-15T05:21:42.378Z,99.99
2022-10-15T05:22:42.350Z,99.99
2022-10-15T05:23:42.294Z,99.99
2022-10-15T05:24:42.268Z,99.99
2022-10-15T05:25:42.279Z,99.99
2022-10-15T05:26:42.182Z,99.99
2022-10-15T05:27:42.149Z,99.99
2022-10-15T05:28:42.172Z,99.99
2022-10-15T05:29:51.437Z,99.99
2022-10-15T05:30:42.055Z,99.99
2022-10-15T05:31:42.086Z,99.99
2022-10-15T05:32:41.995Z,99.99
2022-10-15T05:33:41.959Z,99.99
2022-10-15T05:34:41.927Z,99.99
2022-10-15T05:35:41.898Z,99.99
2022-10-15T05:36:41.861Z,99.99
2022-10-15T05:37:41.894Z,99.99
2022-10-15T05:38:41.801Z,99.99
2022-10-15T05:39:41.769Z,99.99
2022-10-15T05:40:41.732Z,99.99
2022-10-15T05:41:41.718Z,99.99
2022-10-15T05:42:41.692Z,99.99
2022-10-15T05:43:41.740Z,99.99
2022-10-15T05:44:41.619Z,99.99
2022-10-15T05:45:41.595Z,99.99
2022-10-15T05:46:41.544Z,99.99
2022-10-15T05:47:41.575Z,99.99
2022-10-15T05:48:41.484Z,99.99
2022-10-15T05:49:41.454Z,99.99
2022-10-15T05:50:41.415Z,99.99
2022-10-15T05:51:41.638Z,99.99
2022-10-15T05:52:41.348Z,99.99
2022-10-15T05:53:41.320Z,99.99
2022-10-15T05:54:41.285Z,99.99
2022-10-15T05:55:41.254Z,99.99
2022-10-15T05:56:41.268Z,99.99
2022-10-15T05:57:41.245Z,99.99
2022-10-15T05:58:41.161Z,99.99
2022-10-15T05:59:41.125Z,99.99
2022-10-15T06:00:41.100Z,99.99
2022-10-15T06:01:41.096Z,99.99
2022-10-15T06:02:41.248Z,99.99
2022-10-15T06:03:40.998Z,99.99
2022-10-15T06:04:40.968Z,99.99
2022-10-15T06:05:40.935Z,99.99
2022-10-15T06:06:40.901Z,99.99
2022-10-15T06:07:40.980Z,99.99
2022-10-15T06:08:40.854Z,99.99
2022-10-15T06:09:40.810Z,99.99
2022-10-15T06:10:40.779Z,99.99
2022-10-15T06:11:40.744Z,99.99
2022-10-15T06:12:40.715Z,99.99
2022-10-15T06:13:40.749Z,99.99
2022-10-15T06:14:40.655Z,99.99
2022-10-15T06:15:40.622Z,99.99
2022-10-15T06:16:40.585Z,99.99
2022-10-15T06:17:41.349Z,99.99
2022-10-15T06:18:40.527Z,99.99
2022-10-15T06:19:40.555Z,99.99
2022-10-15T06:20:40.470Z,99.99
2022-10-15T06:21:40.431Z,99.99
2022-10-15T06:22:40.508Z,99.99
2022-10-15T06:23:40.369Z,99.99
2022-10-15T06:24:40.333Z,99.99
2022-10-15T06:25:40.371Z,99.99
2022-10-15T06:26:40.271Z,99.99
2022-10-15T06:27:40.248Z,99.99
2022-10-15T06:28:40.331Z,99.99
2022-10-15T06:29:40.181Z,99.99
2022-10-15T06:30:40.161Z,99.99
2022-10-15T06:31:40.165Z,99.99
2022-10-15T06:32:40.078Z,99.99
2022-10-15T06:33:40.125Z,99.99
2022-10-15T06:34:40.021Z,99.99
2022-10-15T06:35:39.982Z,99.99
2022-10-15T06:36:39.959Z,99.99
2022-10-15T06:37:39.931Z,99.99
2022-10-15T06:38:39.885Z,99.99
2022-10-15T06:39:39.921Z,99.99
2022-10-15T06:40:39.834Z,99.99
2022-10-15T06:41:39.796Z,99.99
2022-10-15T06:42:39.809Z,99.99
2022-10-15T06:43:39.770Z,99.99
2022-10-15T06:44:39.706Z,99.99
2022-10-15T06:45:39.725Z,99.99
2022-10-15T06:46:39.689Z,99.99
2022-10-15T06:47:39.602Z,99.99
2022-10-15T06:48:39.570Z,99.99
2022-10-15T06:49:39.549Z,99.99
2022-10-15T06:50:39.575Z,99.99
2022-10-15T06:51:39.476Z,99.99
2022-10-15T06:52:39.511Z,99.99
2022-10-15T06:53:39.417Z,99.99
2022-10-15T06:54:39.383Z,99.99
2022-10-15T06:55:39.352Z,99.99
2022-10-15T06:56:39.317Z,99.99
2022-10-15T06:57:39.288Z,99.99
2022-10-15T06:58:39.324Z,99.99
2022-10-15T06:59:41.402Z,99.99
2022-10-15T07:00:39.197Z,99.99
2022-10-15T07:01:41.461Z,99.99
2022-10-15T07:02:39.132Z,99.99
2022-10-15T07:03:39.118Z,99.99
2022-10-15T07:04:39.141Z,99.99
2022-10-15T07:05:39.065Z,99.99
2022-10-15T07:06:39.009Z,99.99
2022-10-15T07:07:38.980Z,99.99
2022-10-15T07:08:38.951Z,99.99
2022-10-15T07:09:38.920Z,99.99
2022-10-15T07:10:38.940Z,99.99
2022-10-15T07:11:38.853Z,99.99
2022-10-15T07:12:38.827Z,99.99
2022-10-15T07:13:38.805Z,99.99
2022-10-15T07:14:41.642Z,99.99
2022-10-15T07:15:38.731Z,99.99
2022-10-15T07:16:38.764Z,99.99
2022-10-15T07:17:38.678Z,99.99
2022-10-15T07:18:38.641Z,99.99
2022-10-15T07:19:38.629Z,99.99
2022-10-15T07:20:38.614Z,99.99
2022-10-15T07:21:38.565Z,99.99
2022-10-15T07:22:40.370Z,99.99
2022-10-15T07:23:38.489Z,99.99
2022-10-15T07:24:38.507Z,99.99
2022-10-15T07:25:38.445Z,99.99
2022-10-15T07:26:38.402Z,99.99
2022-10-15T07:27:38.378Z,99.99
2022-10-15T07:28:38.446Z,99.97
2022-10-15T07:29:38.310Z,99.77
2022-10-15T07:30:38.292Z,99.36
2022-10-15T07:31:38.294Z,98.81
2022-10-15T07:32:38.232Z,98.81
2022-10-15T07:33:38.199Z,98.61
2022-10-15T07:34:38.349Z,98.20
2022-10-15T07:35:38.141Z,97.85
2022-10-15T07:36:38.107Z,98.25
2022-10-15T07:37:38.071Z,97.14
2022-10-15T07:38:38.062Z,97.30
2022-10-15T07:39:40.819Z,97.60
2022-10-15T07:40:37.982Z,96.69
2022-10-15T07:41:37.957Z,96.65
2022-10-15T07:42:37.928Z,96.25
2022-10-15T07:43:37.893Z,95.43
2022-10-15T07:44:37.922Z,94.99
2022-10-15T07:45:37.849Z,94.99
2022-10-15T07:46:37.817Z,94.04
2022-10-15T07:47:37.782Z,93.77
2022-10-15T07:48:37.772Z,93.13
2022-10-15T07:49:37.786Z,92.93
2022-10-15T07:50:40.320Z,92.62
2022-10-15T07:51:37.664Z,92.66
2022-10-15T07:52:37.643Z,93.07
2022-10-15T07:53:37.628Z,93.48
2022-10-15T07:54:37.633Z,93.57
2022-10-15T07:55:37.560Z,93.57
2022-10-15T07:56:37.526Z,92.66
2022-10-15T07:57:37.495Z,92.46
2022-10-15T07:58:37.469Z,92.77
2022-10-15T07:59:37.514Z,92.26
2022-10-15T08:00:37.412Z,92.62
2022-10-15T08:01:37.408Z,92.42
2022-10-15T08:02:37.349Z,92.22
2022-10-15T08:03:37.321Z,92.02
2022-10-15T08:04:37.289Z,92.07
2022-10-15T08:05:37.321Z,91.57
2022-10-15T08:06:37.234Z,91.87
2022-10-15T08:07:37.199Z,91.27
2022-10-15T08:08:37.192Z,90.86
2022-10-15T08:09:37.289Z,90.46
2022-10-15T08:10:37.195Z,90.56
2022-10-15T08:11:37.098Z,90.46
2022-10-15T08:12:37.064Z,91.42
2022-10-15T08:13:37.045Z,90.52
2022-10-15T08:14:37.008Z,90.22
2022-10-15T08:15:36.988Z,90.22
2022-10-15T08:16:37.017Z,90.01
2022-10-15T08:17:36.921Z,90.11
2022-10-15T08:18:36.895Z,89.81
2022-10-15T08:19:36.871Z,90.11
2022-10-15T08:20:36.853Z,90.17
2022-10-15T08:21:36.905Z,89.97
2022-10-15T08:22:36.776Z,90.07
2022-10-15T08:23:36.750Z,89.17
2022-10-15T08:24:36.735Z,89.06
2022-10-15T08:25:36.691Z,88.66
2022-10-15T08:26:36.671Z,88.46
2022-10-15T08:27:36.685Z,88.76
2022-10-15T08:28:36.699Z,88.26
2022-10-15T08:29:36.584Z,88.42
2022-10-15T08:30:36.564Z,88.76
2022-10-15T08:31:36.593Z,88.52
2022-10-15T08:32:36.497Z,88.42
2022-10-15T08:33:36.506Z,88.42
2022-10-15T08:34:36.447Z,87.27
2022-10-15T08:35:36.417Z,87.37
2022-10-15T08:36:36.389Z,87.02
2022-10-15T08:37:36.414Z,86.66
2022-10-15T08:38:36.330Z,86.63
2022-10-15T08:39:36.365Z,86.36
2022-10-15T08:40:36.277Z,86.06
2022-10-15T08:41:36.250Z,86.46
2022-10-15T08:42:36.221Z,86.57
2022-10-15T08:43:36.192Z,86.97
2022-10-15T08:44:36.169Z,86.57
2022-10-15T08:45:36.209Z,86.36
2022-10-15T08:46:36.111Z,86.32
2022-10-15T08:47:36.078Z,86.32
2022-10-15T08:48:36.061Z,86.28
2022-10-15T08:49:36.063Z,85.78
2022-10-15T08:50:36.000Z,85.98
2022-10-15T08:51:36.036Z,85.84
2022-10-15T08:52:35.959Z,85.98
2022-10-15T08:53:35.920Z,85.58
2022-10-15T08:54:35.901Z,85.38
2022-10-15T08:55:35.896Z,85.08
2022-10-15T08:56:35.913Z,84.94
2022-10-15T08:57:35.824Z,85.03
2022-10-15T08:58:38.259Z,85.24
2022-10-15T08:59:35.755Z,85.03
2022-10-15T09:00:35.727Z,84.94
2022-10-15T09:01:35.727Z,85.08
2022-10-15T09:02:35.765Z,84.94
2022-10-15T09:03:35.656Z,85.28
2022-10-15T09:04:35.642Z,85.14
2022-10-15T09:05:35.600Z,84.83
2022-10-15T09:06:35.598Z,84.83
2022-10-15T09:07:35.630Z,84.74
2022-10-15T09:08:35.518Z,84.19
2022-10-15T09:09:35.484Z,83.39
2022-10-15T09:10:35.468Z,83.53
2022-10-15T09:11:35.440Z,83.53
2022-10-15T09:12:35.415Z,84.13
2022-10-15T09:14:35.377Z,84.19
2022-10-15T09:15:35.341Z,83.89
2022-10-15T09:16:35.306Z,83.15
2022-10-15T09:17:35.274Z,83.04
2022-10-15T09:18:35.304Z,82.75
2022-10-15T09:19:35.221Z,82.84
2022-10-15T09:20:35.196Z,82.45
2022-10-15T09:21:35.219Z,82.34
2022-10-15T09:22:35.145Z,82.20
2022-10-15T09:23:35.179Z,82.64
2022-10-15T09:24:35.088Z,82.34
2022-10-15T09:25:35.062Z,82.78
2022-10-15T09:26:35.038Z,82.84
2022-10-15T09:27:35.070Z,82.64
2022-10-15T09:28:35.041Z,82.95
2022-10-15T09:29:34.957Z,82.34
2022-10-15T09:30:34.985Z,82.14
2022-10-15T09:31:34.924Z,82.75
2022-10-15T09:32:34.903Z,82.95
2022-10-15T09:33:34.947Z,82.34
2022-10-15T09:34:34.857Z,82.34
2022-10-15T09:35:34.806Z,82.95
2022-10-15T09:36:34.777Z,82.64
2022-10-15T09:37:34.760Z,81.60
2022-10-15T09:38:34.721Z,82.10
2022-10-15T09:39:34.784Z,82.10
2022-10-15T09:40:34.678Z,81.80
2022-10-15T09:41:34.648Z,81.90
2022-10-15T09:42:34.616Z,81.74
2022-10-15T09:43:34.588Z,81.80
2022-10-15T09:44:34.567Z,80.90
2022-10-15T09:45:34.621Z,81.10
2022-10-15T09:46:34.516Z,81.10
2022-10-15T09:47:34.489Z,80.86
2022-10-15T09:48:34.476Z,80.90
2022-10-15T09:49:36.468Z,80.80
2022-10-15T09:50:34.405Z,80.50
2022-10-15T09:51:34.451Z,80.60
2022-10-15T09:52:34.365Z,79.90
2022-10-15T09:53:34.348Z,80.36
2022-10-15T09:54:34.374Z,80.16
2022-10-15T09:55:34.356Z,80.06
2022-10-15T09:56:34.253Z,79.36
2022-10-15T09:57:34.238Z,79.55
2022-10-15T09:58:34.213Z,79.46
2022-10-15T09:59:34.180Z,79.86
2022-10-15T10:00:34.143Z,79.72
2022-10-15T10:01:34.179Z,79.92
2022-10-15T10:02:34.126Z,79.36
2022-10-15T10:03:34.085Z,79.92
2022-10-15T10:04:34.065Z,79.72
2022-10-15T10:05:34.041Z,79.18
2022-10-15T10:06:33.994Z,79.38
2022-10-15T10:07:34.090Z,78.98
2022-10-15T10:08:33.938Z,78.44
2022-10-15T10:09:33.924Z,77.74
2022-10-15T10:10:33.950Z,77.74
2022-10-15T10:11:33.906Z,77.44
2022-10-15T10:12:33.891Z,77.04
2022-10-15T10:13:33.890Z,77.44
2022-10-15T10:14:33.786Z,77.91
2022-10-15T10:15:34.480Z,78.55
2022-10-15T10:16:33.924Z,79.62
2022-10-15T10:17:34.426Z,79.92
2022-10-15T10:18:33.751Z,79.96
2022-10-15T10:19:33.672Z,79.55
2022-10-15T10:20:33.630Z,79.55
2022-10-15T10:21:33.606Z,79.55
2022-10-15T10:22:33.608Z,79.52
2022-10-15T10:23:33.643Z,79.32
2022-10-15T10:24:33.538Z,78.96
2022-10-15T10:25:33.498Z,79.36
2022-10-15T10:26:33.503Z,79.96
2022-10-15T10:27:33.491Z,79.75
2022-10-15T10:28:33.458Z,79.82
2022-10-15T10:29:34.836Z,79.38
2022-10-15T10:30:33.388Z,78.42
2022-10-15T10:31:33.343Z,79.08
2022-10-15T10:32:33.325Z,78.68
2022-10-15T10:33:33.306Z,79.14
2022-10-15T10:34:33.273Z,78.98
2022-10-15T10:35:33.303Z,79.58
2022-10-15T10:36:33.225Z,79.42
2022-10-15T10:37:33.248Z,79.82
2022-10-15T10:38:33.176Z,79.42
2022-10-15T10:39:33.145Z,79.48
2022-10-15T10:40:33.127Z,79.28
2022-10-15T10:41:33.095Z,78.98
2022-10-15T10:42:33.197Z,78.64
2022-10-15T10:43:38.222Z,78.74
2022-10-15T10:44:33.028Z,78.24
2022-10-15T10:45:33.069Z,77.30
2022-10-15T10:46:32.987Z,77.40
2022-10-15T10:47:32.996Z,77.30
2022-10-15T10:48:32.920Z,77.50
2022-10-15T10:49:32.890Z,77.36
2022-10-15T10:50:32.868Z,77.47
2022-10-15T10:51:32.839Z,77.40
2022-10-15T10:52:32.870Z,77.40
2022-10-15T10:53:32.790Z,77.20
2022-10-15T10:54:32.787Z,77.74
2022-10-15T10:55:32.740Z,77.84
2022-10-15T10:56:32.709Z,78.58
2022-10-15T10:57:32.758Z,78.58
2022-10-15T10:58:32.699Z,79.32
2022-10-15T10:59:32.637Z,79.92
2022-10-15T11:00:32.671Z,80.02
2022-10-15T11:01:32.582Z,79.92
2022-10-15T11:02:32.557Z,80.86
2022-10-15T11:03:32.595Z,80.96
2022-10-15T11:04:32.510Z,81.02
2022-10-15T11:05:32.479Z,80.72
2022-10-15T11:06:32.460Z,80.02
2022-10-15T11:07:32.434Z,79.88
2022-10-15T11:08:32.527Z,79.28
2022-10-15T11:09:32.437Z,79.14
2022-10-15T11:10:32.396Z,78.70
2022-10-15T11:11:32.331Z,78.41
2022-10-15T11:12:32.303Z,77.80
2022-10-15T11:13:32.277Z,77.80
2022-10-15T11:14:32.313Z,76.70
2022-10-15T11:15:32.286Z,77.06
2022-10-15T11:16:32.205Z,76.87
2022-10-15T11:17:32.176Z,76.46
2022-10-15T11:18:32.146Z,76.53
2022-10-15T11:19:59.535Z,76.13
2022-10-15T11:20:49.909Z,76.53
2022-10-15T11:21:32.075Z,76.46
2022-10-15T11:22:32.056Z,77.60
2022-10-15T11:23:32.025Z,78.64
2022-10-15T11:24:42.580Z,79.08
2022-10-15T11:25:31.969Z,79.38
2022-10-15T11:26:37.611Z,79.68
2022-10-15T11:27:31.921Z,79.48
2022-10-15T11:28:32.001Z,79.58
2022-10-15T11:29:31.876Z,79.74
2022-10-15T11:30:41.075Z,79.58
2022-10-15T11:31:37.097Z,79.38
2022-10-15T11:32:47.948Z,79.98
2022-10-15T11:33:32.013Z,78.88
2022-10-15T11:34:32.486Z,79.68
2022-10-15T11:35:51.657Z,79.48
2022-10-15T11:36:31.686Z,79.28
2022-10-15T11:37:31.663Z,79.78
2022-10-15T11:38:31.685Z,80.28
2022-10-15T11:39:31.607Z,79.68
2022-10-15T11:41:31.562Z,79.58
2022-10-15T11:42:31.554Z,79.28
2022-10-15T11:43:31.504Z,79.34
2022-10-15T11:44:31.491Z,79.14
2022-10-15T11:45:31.460Z,79.14
2022-10-15T11:46:31.484Z,78.84
2022-10-15T11:47:31.421Z,78.50
2022-10-15T11:48:31.393Z,77.91
2022-10-15T11:49:31.452Z,77.47
2022-10-15T11:50:31.327Z,76.87
2022-10-15T11:51:31.683Z,78.10
2022-10-15T11:52:31.291Z,77.30
2022-10-15T11:53:31.287Z,78.20
2022-10-15T11:54:31.234Z,78.04
2022-10-15T11:55:31.206Z,77.94
2022-10-15T11:56:34.954Z,77.74
2022-10-15T11:57:31.978Z,77.44
2022-10-15T11:58:31.137Z,77.24
2022-10-15T11:59:31.109Z,77.48
2022-10-15T12:00:31.077Z,78.18
2022-10-15T12:01:31.055Z,78.02
2022-10-15T12:02:31.147Z,78.28
2022-10-15T12:03:31.003Z,78.38
2022-10-15T12:04:32.716Z,78.78
2022-10-15T12:05:30.957Z,78.78
2022-10-15T12:06:30.995Z,77.98
2022-10-15T12:07:30.908Z,79.08
2022-10-15T12:08:30.909Z,78.64
2022-10-15T12:09:30.928Z,78.54
2022-10-15T12:10:30.858Z,78.94
2022-10-15T12:11:30.792Z,77.84
2022-10-15T12:12:30.831Z,77.14
2022-10-15T12:13:30.743Z,77.30
2022-10-15T12:14:30.717Z,77.80
2022-10-15T12:15:30.689Z,77.30
2022-10-15T12:16:30.666Z,77.10
2022-10-15T12:17:30.641Z,77.36
2022-10-15T12:18:30.672Z,77.20
2022-10-15T12:19:30.584Z,76.70
2022-10-15T12:20:30.595Z,77.70
2022-10-15T12:21:30.533Z,77.40
2022-10-15T12:22:33.608Z,78.00
2022-10-15T12:23:30.482Z,78.10
2022-10-15T12:24:30.521Z,77.60
2022-10-15T12:25:30.436Z,78.20
2022-10-15T12:26:30.433Z,78.14
2022-10-15T12:27:30.384Z,77.84
2022-10-15T12:28:30.441Z,78.14
2022-10-15T12:29:30.326Z,77.84
2022-10-15T12:30:30.363Z,76.84
2022-10-15T12:31:32.185Z,77.84
2022-10-15T12:32:30.298Z,77.44
2022-10-15T12:33:30.231Z,77.64
2022-10-15T12:34:30.213Z,77.34
2022-10-15T12:35:30.225Z,77.34
2022-10-15T12:36:30.261Z,78.04
2022-10-15T12:37:30.227Z,78.08
2022-10-15T12:38:30.098Z,77.84
2022-10-15T12:39:59.938Z,78.44
2022-10-15T12:40:30.071Z,78.44
2022-10-15T12:41:30.030Z,78.34
2022-10-15T12:42:30.198Z,78.64
2022-10-15T12:43:30.036Z,78.14
2022-10-15T12:44:29.946Z,78.28
2022-10-15T12:45:29.926Z,78.58
2022-10-15T12:46:29.897Z,79.98
2022-10-15T12:47:29.876Z,79.28
2022-10-15T12:48:29.904Z,78.94
2022-10-15T12:49:29.836Z,78.68
2022-10-15T12:50:29.799Z,78.94
2022-10-15T12:51:29.792Z,79.24
2022-10-15T12:52:29.744Z,78.64
2022-10-15T12:53:29.839Z,78.94
2022-10-15T12:54:29.816Z,78.74
2022-10-15T12:55:29.670Z,78.24
2022-10-15T12:56:29.643Z,78.24
2022-10-15T12:57:29.620Z,78.04